sensor_id;sensor_type;location;lat;lon;timestamp;P1;durP1;ratioP1;P2;durP2;ratioP2
23990;SDS011;12205;50.600;4.608;2022-12-10T00:01:20;49.17;;;12.40;;
23990;SDS011;12205;50.600;4.608;2022-12-10T00:03:49;42.03;;;11.02;;
23990;SDS011;12205;50.600;4.608;2022-12-10T00:06:18;50.80;;;13.25;;
23990;SDS011;12205;50.600;4.608;2022-12-10T00:08:49;56.20;;;12.65;;
23990;SDS011;12205;50.600;4.608;2022-12-10T00:11:18;57.47;;;15.07;;
23990;SDS011;12205;50.600;4.608;2022-12-10T00:13:48;42.13;;;10.73;;
23990;SDS011;12205;50.600;4.608;2022-12-10T00:16:17;48.30;;;12.30;;
23990;SDS011;12205;50.600;4.608;2022-12-10T00:18:47;42.05;;;11.48;;
23990;SDS011;12205;50.600;4.608;2022-12-10T00:21:16;56.80;;;13.55;;
23990;SDS011;12205;50.600;4.608;2022-12-10T00:23:46;44.20;;;11.05;;
23990;SDS011;12205;50.600;4.608;2022-12-10T00:26:15;46.80;;;12.68;;
23990;SDS011;12205;50.600;4.608;2022-12-10T00:28:44;58.50;;;13.95;;
23990;SDS011;12205;50.600;4.608;2022-12-10T00:31:13;43.05;;;10.68;;
23990;SDS011;12205;50.600;4.608;2022-12-10T00:33:43;56.72;;;13.02;;
23990;SDS011;12205;50.600;4.608;2022-12-10T00:36:12;57.78;;;12.95;;
23990;SDS011;12205;50.600;4.608;2022-12-10T00:38:43;51.60;;;12.80;;
23990;SDS011;12205;50.600;4.608;2022-12-10T00:41:12;47.83;;;11.98;;
23990;SDS011;12205;50.600;4.608;2022-12-10T00:43:41;45.53;;;11.45;;
23990;SDS011;12205;50.600;4.608;2022-12-10T00:46:09;50.85;;;12.18;;
23990;SDS011;12205;50.600;4.608;2022-12-10T00:48:39;52.08;;;12.10;;
23990;SDS011;12205;50.600;4.608;2022-12-10T00:51:07;44.00;;;11.55;;
23990;SDS011;12205;50.600;4.608;2022-12-10T00:53:37;27.00;;;7.40;;
23990;SDS011;12205;50.600;4.608;2022-12-10T00:56:08;46.60;;;11.73;;
23990;SDS011;12205;50.600;4.608;2022-12-10T00:58:37;47.60;;;11.68;;
23990;SDS011;12205;50.600;4.608;2022-12-10T01:01:09;43.42;;;10.68;;
23990;SDS011;12205;50.600;4.608;2022-12-10T01:03:39;47.75;;;10.93;;
23990;SDS011;12205;50.600;4.608;2022-12-10T01:06:08;63.10;;;15.77;;
23990;SDS011;12205;50.600;4.608;2022-12-10T01:08:40;44.35;;;11.88;;
23990;SDS011;12205;50.600;4.608;2022-12-10T01:11:09;49.58;;;11.55;;
23990;SDS011;12205;50.600;4.608;2022-12-10T01:13:38;53.57;;;11.77;;
23990;SDS011;12205;50.600;4.608;2022-12-10T01:16:07;41.90;;;10.98;;
23990;SDS011;12205;50.600;4.608;2022-12-10T01:18:38;43.95;;;10.60;;
23990;SDS011;12205;50.600;4.608;2022-12-10T01:21:06;37.33;;;10.20;;
23990;SDS011;12205;50.600;4.608;2022-12-10T01:23:36;49.72;;;12.15;;
23990;SDS011;12205;50.600;4.608;2022-12-10T01:28:41;46.08;;;11.00;;
23990;SDS011;12205;50.600;4.608;2022-12-10T01:31:10;54.95;;;12.05;;
23990;SDS011;12205;50.600;4.608;2022-12-10T01:33:40;49.75;;;12.35;;
23990;SDS011;12205;50.600;4.608;2022-12-10T01:36:09;47.80;;;11.48;;
23990;SDS011;12205;50.600;4.608;2022-12-10T01:38:39;30.00;;;7.50;;
23990;SDS011;12205;50.600;4.608;2022-12-10T01:41:13;43.00;;;11.55;;
23990;SDS011;12205;50.600;4.608;2022-12-10T01:47:09;54.35;;;13.00;;
23990;SDS011;12205;50.600;4.608;2022-12-10T01:49:38;55.00;;;12.10;;
23990;SDS011;12205;50.600;4.608;2022-12-10T01:52:08;58.05;;;13.10;;
23990;SDS011;12205;50.600;4.608;2022-12-10T01:54:38;53.05;;;12.15;;
23990;SDS011;12205;50.600;4.608;2022-12-10T01:57:10;35.23;;;7.73;;
23990;SDS011;12205;50.600;4.608;2022-12-10T01:59:41;54.67;;;13.63;;
23990;SDS011;12205;50.600;4.608;2022-12-10T02:02:17;53.20;;;12.48;;
23990;SDS011;12205;50.600;4.608;2022-12-10T02:05:04;42.90;;;12.07;;
23990;SDS011;12205;50.600;4.608;2022-12-10T02:07:52;43.70;;;11.20;;
23990;SDS011;12205;50.600;4.608;2022-12-10T02:10:35;61.20;;;13.20;;
23990;SDS011;12205;50.600;4.608;2022-12-10T02:13:17;61.70;;;12.95;;
23990;SDS011;12205;50.600;4.608;2022-12-10T02:15:50;59.97;;;13.07;;
23990;SDS011;12205;50.600;4.608;2022-12-10T02:18:24;49.35;;;11.48;;
23990;SDS011;12205;50.600;4.608;2022-12-10T02:20:56;47.20;;;12.48;;
23990;SDS011;12205;50.600;4.608;2022-12-10T02:23:30;58.13;;;14.00;;
23990;SDS011;12205;50.600;4.608;2022-12-10T02:26:02;49.50;;;12.27;;
23990;SDS011;12205;50.600;4.608;2022-12-10T02:28:40;60.03;;;15.07;;
23990;SDS011;12205;50.600;4.608;2022-12-10T02:31:17;48.63;;;12.20;;
23990;SDS011;12205;50.600;4.608;2022-12-10T02:33:51;62.03;;;14.52;;
23990;SDS011;12205;50.600;4.608;2022-12-10T02:36:23;57.78;;;14.07;;
23990;SDS011;12205;50.600;4.608;2022-12-10T02:38:56;52.95;;;13.15;;
23990;SDS011;12205;50.600;4.608;2022-12-10T02:41:28;41.10;;;9.07;;
23990;SDS011;12205;50.600;4.608;2022-12-10T02:44:02;65.90;;;15.32;;
23990;SDS011;12205;50.600;4.608;2022-12-10T02:46:35;61.78;;;14.63;;
23990;SDS011;12205;50.600;4.608;2022-12-10T02:49:07;63.38;;;13.60;;
23990;SDS011;12205;50.600;4.608;2022-12-10T02:51:40;69.00;;;15.32;;
23990;SDS011;12205;50.600;4.608;2022-12-10T03:00:17;67.90;;;14.93;;
23990;SDS011;12205;50.600;4.608;2022-12-10T03:02:58;66.55;;;14.73;;
23990;SDS011;12205;50.600;4.608;2022-12-10T03:05:40;64.10;;;14.10;;
23990;SDS011;12205;50.600;4.608;2022-12-10T03:08:14;67.45;;;16.60;;
23990;SDS011;12205;50.600;4.608;2022-12-10T03:10:49;70.07;;;15.02;;
23990;SDS011;12205;50.600;4.608;2022-12-10T03:13:27;69.80;;;14.98;;
23990;SDS011;12205;50.600;4.608;2022-12-10T03:15:59;67.30;;;14.18;;
23990;SDS011;12205;50.600;4.608;2022-12-10T03:18:31;66.95;;;13.95;;
23990;SDS011;12205;50.600;4.608;2022-12-10T03:21:03;58.70;;;13.68;;
23990;SDS011;12205;50.600;4.608;2022-12-10T03:23:33;74.63;;;16.80;;
23990;SDS011;12205;50.600;4.608;2022-12-10T03:26:07;77.95;;;16.42;;
23990;SDS011;12205;50.600;4.608;2022-12-10T03:28:37;71.88;;;16.02;;
23990;SDS011;12205;50.600;4.608;2022-12-10T03:31:09;77.43;;;17.63;;
23990;SDS011;12205;50.600;4.608;2022-12-10T03:33:40;79.65;;;16.08;;
23990;SDS011;12205;50.600;4.608;2022-12-10T03:36:08;64.50;;;14.43;;
23990;SDS011;12205;50.600;4.608;2022-12-10T03:38:37;77.85;;;16.40;;
23990;SDS011;12205;50.600;4.608;2022-12-10T03:41:05;85.45;;;16.98;;
23990;SDS011;12205;50.600;4.608;2022-12-10T03:43:33;75.18;;;16.50;;
23990;SDS011;12205;50.600;4.608;2022-12-10T03:46:00;73.63;;;15.77;;
23990;SDS011;12205;50.600;4.608;2022-12-10T03:48:28;82.65;;;17.67;;
23990;SDS011;12205;50.600;4.608;2022-12-10T03:50:56;82.75;;;18.17;;
23990;SDS011;12205;50.600;4.608;2022-12-10T03:53:23;76.10;;;17.15;;
23990;SDS011;12205;50.600;4.608;2022-12-10T03:55:50;64.20;;;16.02;;
23990;SDS011;12205;50.600;4.608;2022-12-10T03:58:18;84.45;;;17.33;;
23990;SDS011;12205;50.600;4.608;2022-12-10T04:00:45;74.90;;;16.48;;
23990;SDS011;12205;50.600;4.608;2022-12-10T04:03:12;79.68;;;17.92;;
23990;SDS011;12205;50.600;4.608;2022-12-10T04:05:39;76.00;;;16.52;;
23990;SDS011;12205;50.600;4.608;2022-12-10T04:08:08;73.93;;;15.00;;
23990;SDS011;12205;50.600;4.608;2022-12-10T04:10:35;63.13;;;13.73;;
23990;SDS011;12205;50.600;4.608;2022-12-10T04:13:03;74.35;;;17.50;;
23990;SDS011;12205;50.600;4.608;2022-12-10T04:15:48;65.30;;;15.20;;
23990;SDS011;12205;50.600;4.608;2022-12-10T04:18:33;77.82;;;19.02;;
23990;SDS011;12205;50.600;4.608;2022-12-10T04:21:00;76.80;;;16.60;;
23990;SDS011;12205;50.600;4.608;2022-12-10T04:23:46;72.35;;;16.17;;
23990;SDS011;12205;50.600;4.608;2022-12-10T04:26:31;71.47;;;15.82;;
23990;SDS011;12205;50.600;4.608;2022-12-10T04:29:15;79.75;;;17.60;;
23990;SDS011;12205;50.600;4.608;2022-12-10T04:31:42;80.80;;;17.52;;
23990;SDS011;12205;50.600;4.608;2022-12-10T04:34:09;81.93;;;17.98;;
23990;SDS011;12205;50.600;4.608;2022-12-10T04:36:37;64.18;;;15.30;;
23990;SDS011;12205;50.600;4.608;2022-12-10T04:39:05;72.65;;;16.33;;
23990;SDS011;12205;50.600;4.608;2022-12-10T04:41:32;72.68;;;16.02;;
23990;SDS011;12205;50.600;4.608;2022-12-10T04:44:00;66.22;;;15.25;;
23990;SDS011;12205;50.600;4.608;2022-12-10T04:46:27;68.00;;;15.15;;
23990;SDS011;12205;50.600;4.608;2022-12-10T04:48:54;76.15;;;15.60;;
23990;SDS011;12205;50.600;4.608;2022-12-10T04:51:21;64.38;;;16.05;;
23990;SDS011;12205;50.600;4.608;2022-12-10T04:53:49;60.40;;;14.30;;
23990;SDS011;12205;50.600;4.608;2022-12-10T04:56:17;57.75;;;12.85;;
23990;SDS011;12205;50.600;4.608;2022-12-10T04:58:45;65.60;;;13.68;;
23990;SDS011;12205;50.600;4.608;2022-12-10T05:01:12;69.78;;;14.75;;
23990;SDS011;12205;50.600;4.608;2022-12-10T05:03:39;66.18;;;14.18;;
23990;SDS011;12205;50.600;4.608;2022-12-10T05:06:08;59.25;;;14.82;;
23990;SDS011;12205;50.600;4.608;2022-12-10T05:08:39;74.55;;;14.50;;
23990;SDS011;12205;50.600;4.608;2022-12-10T05:11:07;65.55;;;15.02;;
23990;SDS011;12205;50.600;4.608;2022-12-10T05:13:39;63.40;;;16.50;;
23990;SDS011;12205;50.600;4.608;2022-12-10T05:16:07;60.53;;;14.23;;
23990;SDS011;12205;50.600;4.608;2022-12-10T05:18:38;65.93;;;13.93;;
23990;SDS011;12205;50.600;4.608;2022-12-10T05:21:06;65.28;;;15.32;;
23990;SDS011;12205;50.600;4.608;2022-12-10T05:23:38;46.78;;;12.35;;
23990;SDS011;12205;50.600;4.608;2022-12-10T05:26:07;40.40;;;10.60;;
23990;SDS011;12205;50.600;4.608;2022-12-10T05:28:39;48.67;;;11.75;;
23990;SDS011;12205;50.600;4.608;2022-12-10T05:31:11;50.40;;;11.40;;
23990;SDS011;12205;50.600;4.608;2022-12-10T05:33:40;41.42;;;10.40;;
23990;SDS011;12205;50.600;4.608;2022-12-10T05:36:08;44.85;;;11.13;;
23990;SDS011;12205;50.600;4.608;2022-12-10T05:38:38;36.33;;;7.97;;
23990;SDS011;12205;50.600;4.608;2022-12-10T05:41:08;53.83;;;14.20;;
23990;SDS011;12205;50.600;4.608;2022-12-10T05:43:39;61.22;;;12.68;;
23990;SDS011;12205;50.600;4.608;2022-12-10T05:46:09;60.88;;;13.30;;
23990;SDS011;12205;50.600;4.608;2022-12-10T05:48:38;66.03;;;13.77;;
23990;SDS011;12205;50.600;4.608;2022-12-10T05:51:06;53.45;;;12.27;;
23990;SDS011;12205;50.600;4.608;2022-12-10T05:53:35;47.45;;;11.70;;
23990;SDS011;12205;50.600;4.608;2022-12-10T05:56:04;51.88;;;11.30;;
23990;SDS011;12205;50.600;4.608;2022-12-10T05:58:35;40.40;;;10.30;;
23990;SDS011;12205;50.600;4.608;2022-12-10T06:01:06;50.22;;;10.68;;
23990;SDS011;12205;50.600;4.608;2022-12-10T06:03:38;52.38;;;13.23;;
23990;SDS011;12205;50.600;4.608;2022-12-10T06:06:05;54.58;;;12.05;;
23990;SDS011;12205;50.600;4.608;2022-12-10T06:08:33;56.63;;;13.68;;
23990;SDS011;12205;50.600;4.608;2022-12-10T06:11:01;60.00;;;13.57;;
23990;SDS011;12205;50.600;4.608;2022-12-10T06:13:29;58.92;;;13.60;;
23990;SDS011;12205;50.600;4.608;2022-12-10T06:15:56;54.17;;;13.38;;
23990;SDS011;12205;50.600;4.608;2022-12-10T06:18:25;51.17;;;13.52;;
23990;SDS011;12205;50.600;4.608;2022-12-10T06:20:52;53.38;;;12.55;;
23990;SDS011;12205;50.600;4.608;2022-12-10T06:23:19;59.10;;;12.48;;
23990;SDS011;12205;50.600;4.608;2022-12-10T06:25:46;53.80;;;11.80;;
23990;SDS011;12205;50.600;4.608;2022-12-10T06:28:14;44.47;;;11.10;;
23990;SDS011;12205;50.600;4.608;2022-12-10T06:30:41;61.75;;;13.40;;
23990;SDS011;12205;50.600;4.608;2022-12-10T06:33:08;60.00;;;12.15;;
23990;SDS011;12205;50.600;4.608;2022-12-10T06:35:38;47.17;;;10.95;;
23990;SDS011;12205;50.600;4.608;2022-12-10T06:38:05;55.03;;;12.38;;
23990;SDS011;12205;50.600;4.608;2022-12-10T06:40:32;48.72;;;11.80;;
23990;SDS011;12205;50.600;4.608;2022-12-10T06:42:59;57.95;;;12.40;;
23990;SDS011;12205;50.600;4.608;2022-12-10T06:45:27;52.45;;;11.68;;
23990;SDS011;12205;50.600;4.608;2022-12-10T06:47:54;51.47;;;11.30;;
23990;SDS011;12205;50.600;4.608;2022-12-10T06:50:21;52.45;;;11.68;;
23990;SDS011;12205;50.600;4.608;2022-12-10T06:52:50;58.70;;;12.95;;
23990;SDS011;12205;50.600;4.608;2022-12-10T06:55:17;47.72;;;11.45;;
23990;SDS011;12205;50.600;4.608;2022-12-10T06:57:44;45.67;;;10.35;;
23990;SDS011;12205;50.600;4.608;2022-12-10T07:00:12;42.85;;;9.55;;
23990;SDS011;12205;50.600;4.608;2022-12-10T07:02:40;44.03;;;10.65;;
23990;SDS011;12205;50.600;4.608;2022-12-10T07:05:08;49.83;;;10.40;;
23990;SDS011;12205;50.600;4.608;2022-12-10T07:07:35;47.28;;;10.18;;
23990;SDS011;12205;50.600;4.608;2022-12-10T07:10:04;45.83;;;10.38;;
23990;SDS011;12205;50.600;4.608;2022-12-10T07:12:33;35.97;;;7.35;;
23990;SDS011;12205;50.600;4.608;2022-12-10T07:15:00;50.97;;;11.00;;
23990;SDS011;12205;50.600;4.608;2022-12-10T07:17:27;44.83;;;10.63;;
23990;SDS011;12205;50.600;4.608;2022-12-10T07:19:54;47.05;;;11.45;;
23990;SDS011;12205;50.600;4.608;2022-12-10T07:22:21;60.17;;;11.68;;
23990;SDS011;12205;50.600;4.608;2022-12-10T07:24:48;47.25;;;10.73;;
23990;SDS011;12205;50.600;4.608;2022-12-10T07:27:17;53.15;;;11.40;;
23990;SDS011;12205;50.600;4.608;2022-12-10T07:29:46;55.03;;;12.10;;
23990;SDS011;12205;50.600;4.608;2022-12-10T07:32:13;55.05;;;12.18;;
23990;SDS011;12205;50.600;4.608;2022-12-10T07:34:41;48.67;;;11.40;;
23990;SDS011;12205;50.600;4.608;2022-12-10T07:37:08;55.17;;;12.10;;
23990;SDS011;12205;50.600;4.608;2022-12-10T07:39:35;58.85;;;12.30;;
23990;SDS011;12205;50.600;4.608;2022-12-10T07:42:02;61.53;;;14.02;;
23990;SDS011;12205;50.600;4.608;2022-12-10T07:44:31;48.15;;;11.02;;
23990;SDS011;12205;50.600;4.608;2022-12-10T07:46:58;46.15;;;9.70;;
23990;SDS011;12205;50.600;4.608;2022-12-10T07:49:26;45.08;;;10.55;;
23990;SDS011;12205;50.600;4.608;2022-12-10T07:51:53;38.80;;;8.98;;
23990;SDS011;12205;50.600;4.608;2022-12-10T07:54:20;37.83;;;8.60;;
23990;SDS011;12205;50.600;4.608;2022-12-10T07:56:47;47.75;;;10.23;;
23990;SDS011;12205;50.600;4.608;2022-12-10T07:59:14;47.10;;;10.05;;
23990;SDS011;12205;50.600;4.608;2022-12-10T08:01:43;47.30;;;10.30;;
23990;SDS011;12205;50.600;4.608;2022-12-10T08:04:10;44.60;;;11.80;;
23990;SDS011;12205;50.600;4.608;2022-12-10T08:06:37;37.88;;;9.15;;
23990;SDS011;12205;50.600;4.608;2022-12-10T08:09:04;48.10;;;11.10;;
23990;SDS011;12205;50.600;4.608;2022-12-10T08:11:31;47.80;;;11.15;;
23990;SDS011;12205;50.600;4.608;2022-12-10T08:13:59;64.63;;;12.98;;
23990;SDS011;12205;50.600;4.608;2022-12-10T08:16:27;52.17;;;11.40;;
23990;SDS011;12205;50.600;4.608;2022-12-10T08:18:58;57.08;;;12.13;;
23990;SDS011;12205;50.600;4.608;2022-12-10T08:21:27;27.40;;;6.75;;
23990;SDS011;12205;50.600;4.608;2022-12-10T08:23:57;46.78;;;11.00;;
23990;SDS011;12205;50.600;4.608;2022-12-10T08:26:26;60.05;;;11.52;;
23990;SDS011;12205;50.600;4.608;2022-12-10T08:28:55;31.63;;;7.65;;
23990;SDS011;12205;50.600;4.608;2022-12-10T08:31:24;46.20;;;10.65;;
23990;SDS011;12205;50.600;4.608;2022-12-10T08:33:53;39.30;;;9.25;;
23990;SDS011;12205;50.600;4.608;2022-12-10T08:36:22;40.28;;;8.77;;
23990;SDS011;12205;50.600;4.608;2022-12-10T08:38:49;39.42;;;9.75;;
23990;SDS011;12205;50.600;4.608;2022-12-10T08:41:17;35.67;;;8.65;;
23990;SDS011;12205;50.600;4.608;2022-12-10T08:43:47;28.13;;;6.53;;
23990;SDS011;12205;50.600;4.608;2022-12-10T08:46:19;36.75;;;9.07;;
23990;SDS011;12205;50.600;4.608;2022-12-10T08:48:47;35.72;;;9.10;;
23990;SDS011;12205;50.600;4.608;2022-12-10T08:51:14;45.78;;;10.60;;
23990;SDS011;12205;50.600;4.608;2022-12-10T08:53:45;47.00;;;11.85;;
23990;SDS011;12205;50.600;4.608;2022-12-10T08:56:14;58.47;;;11.70;;
23990;SDS011;12205;50.600;4.608;2022-12-10T08:58:42;47.33;;;9.43;;
23990;SDS011;12205;50.600;4.608;2022-12-10T09:01:11;35.10;;;8.73;;
23990;SDS011;12205;50.600;4.608;2022-12-10T09:06:11;29.27;;;7.85;;
23990;SDS011;12205;50.600;4.608;2022-12-10T09:08:40;34.50;;;8.30;;
23990;SDS011;12205;50.600;4.608;2022-12-10T09:11:10;35.10;;;7.72;;
23990;SDS011;12205;50.600;4.608;2022-12-10T09:13:40;35.92;;;9.10;;
23990;SDS011;12205;50.600;4.608;2022-12-10T09:16:08;38.10;;;8.65;;
23990;SDS011;12205;50.600;4.608;2022-12-10T09:18:36;36.10;;;8.85;;
23990;SDS011;12205;50.600;4.608;2022-12-10T09:21:04;41.80;;;11.48;;
23990;SDS011;12205;50.600;4.608;2022-12-10T09:23:32;34.08;;;8.65;;
23990;SDS011;12205;50.600;4.608;2022-12-10T09:26:00;36.42;;;9.13;;
23990;SDS011;12205;50.600;4.608;2022-12-10T09:28:32;22.90;;;6.07;;
23990;SDS011;12205;50.600;4.608;2022-12-10T09:31:00;42.05;;;9.80;;
23990;SDS011;12205;50.600;4.608;2022-12-10T09:33:30;34.58;;;8.60;;
23990;SDS011;12205;50.600;4.608;2022-12-10T09:35:58;29.13;;;7.68;;
23990;SDS011;12205;50.600;4.608;2022-12-10T09:38:25;37.50;;;9.00;;
23990;SDS011;12205;50.600;4.608;2022-12-10T09:40:56;33.33;;;8.32;;
23990;SDS011;12205;50.600;4.608;2022-12-10T09:43:36;32.92;;;8.50;;
23990;SDS011;12205;50.600;4.608;2022-12-10T09:46:16;45.22;;;10.90;;
23990;SDS011;12205;50.600;4.608;2022-12-10T09:48:56;41.78;;;9.48;;
23990;SDS011;12205;50.600;4.608;2022-12-10T09:51:36;40.72;;;9.13;;
23990;SDS011;12205;50.600;4.608;2022-12-10T09:54:04;37.25;;;10.70;;
23990;SDS011;12205;50.600;4.608;2022-12-10T09:59:17;40.88;;;9.13;;
23990;SDS011;12205;50.600;4.608;2022-12-10T10:01:51;38.88;;;8.35;;
23990;SDS011;12205;50.600;4.608;2022-12-10T10:04:37;30.10;;;8.07;;
23990;SDS011;12205;50.600;4.608;2022-12-10T10:07:05;38.35;;;8.50;;
23990;SDS011;12205;50.600;4.608;2022-12-10T10:09:34;44.65;;;8.65;;
23990;SDS011;12205;50.600;4.608;2022-12-10T10:12:08;38.58;;;9.45;;
23990;SDS011;12205;50.600;4.608;2022-12-10T10:14:41;32.80;;;8.13;;
23990;SDS011;12205;50.600;4.608;2022-12-10T10:17:11;39.20;;;8.43;;
23990;SDS011;12205;50.600;4.608;2022-12-10T10:19:47;39.17;;;9.15;;
23990;SDS011;12205;50.600;4.608;2022-12-10T10:22:15;33.42;;;8.05;;
23990;SDS011;12205;50.600;4.608;2022-12-10T10:24:43;28.23;;;7.45;;
23990;SDS011;12205;50.600;4.608;2022-12-10T10:27:13;40.75;;;10.50;;
23990;SDS011;12205;50.600;4.608;2022-12-10T10:29:45;22.23;;;5.47;;
23990;SDS011;12205;50.600;4.608;2022-12-10T10:32:17;36.50;;;8.30;;
23990;SDS011;12205;50.600;4.608;2022-12-10T10:34:51;37.55;;;9.40;;
23990;SDS011;12205;50.600;4.608;2022-12-10T10:37:23;35.92;;;8.68;;
23990;SDS011;12205;50.600;4.608;2022-12-10T10:39:54;35.38;;;8.73;;
23990;SDS011;12205;50.600;4.608;2022-12-10T10:42:25;41.20;;;9.43;;
23990;SDS011;12205;50.600;4.608;2022-12-10T10:45:03;37.38;;;9.18;;
23990;SDS011;12205;50.600;4.608;2022-12-10T10:47:52;33.60;;;8.27;;
23990;SDS011;12205;50.600;4.608;2022-12-10T10:50:36;32.63;;;7.57;;
23990;SDS011;12205;50.600;4.608;2022-12-10T10:53:25;25.83;;;7.00;;
23990;SDS011;12205;50.600;4.608;2022-12-10T10:55:58;41.08;;;9.07;;
23990;SDS011;12205;50.600;4.608;2022-12-10T10:58:33;36.45;;;8.93;;
23990;SDS011;12205;50.600;4.608;2022-12-10T11:01:04;38.25;;;9.82;;
23990;SDS011;12205;50.600;4.608;2022-12-10T11:03:35;33.92;;;8.95;;
23990;SDS011;12205;50.600;4.608;2022-12-10T11:06:11;39.47;;;9.23;;
23990;SDS011;12205;50.600;4.608;2022-12-10T11:08:39;36.03;;;8.70;;
23990;SDS011;12205;50.600;4.608;2022-12-10T11:11:11;27.45;;;6.78;;
23990;SDS011;12205;50.600;4.608;2022-12-10T11:13:45;34.65;;;8.40;;
23990;SDS011;12205;50.600;4.608;2022-12-10T11:16:16;40.35;;;8.32;;
23990;SDS011;12205;50.600;4.608;2022-12-10T11:18:56;35.35;;;8.20;;
23990;SDS011;12205;50.600;4.608;2022-12-10T11:21:28;34.00;;;8.10;;
23990;SDS011;12205;50.600;4.608;2022-12-10T11:23:57;44.50;;;9.68;;
23990;SDS011;12205;50.600;4.608;2022-12-10T11:26:36;38.65;;;8.75;;
23990;SDS011;12205;50.600;4.608;2022-12-10T11:29:32;34.70;;;8.43;;
23990;SDS011;12205;50.600;4.608;2022-12-10T11:32:25;33.47;;;7.70;;
23990;SDS011;12205;50.600;4.608;2022-12-10T11:35:19;33.22;;;7.70;;
23990;SDS011;12205;50.600;4.608;2022-12-10T11:38:02;33.65;;;7.82;;
23990;SDS011;12205;50.600;4.608;2022-12-10T11:40:48;37.17;;;8.63;;
23990;SDS011;12205;50.600;4.608;2022-12-10T11:43:26;40.05;;;8.85;;
23990;SDS011;12205;50.600;4.608;2022-12-10T11:46:14;43.33;;;9.10;;
23990;SDS011;12205;50.600;4.608;2022-12-10T11:49:20;40.90;;;9.15;;
23990;SDS011;12205;50.600;4.608;2022-12-10T11:51:57;39.13;;;9.43;;
23990;SDS011;12205;50.600;4.608;2022-12-10T11:54:49;43.58;;;9.05;;
23990;SDS011;12205;50.600;4.608;2022-12-10T11:57:30;40.83;;;9.05;;
23990;SDS011;12205;50.600;4.608;2022-12-10T12:00:17;47.30;;;10.60;;
23990;SDS011;12205;50.600;4.608;2022-12-10T12:02:52;40.63;;;9.25;;
23990;SDS011;12205;50.600;4.608;2022-12-10T12:05:59;43.83;;;10.35;;
23990;SDS011;12205;50.600;4.608;2022-12-10T12:08:50;39.85;;;11.00;;
23990;SDS011;12205;50.600;4.608;2022-12-10T12:11:34;39.85;;;9.57;;
23990;SDS011;12205;50.600;4.608;2022-12-10T12:14:22;37.72;;;8.70;;
23990;SDS011;12205;50.600;4.608;2022-12-10T12:17:00;39.75;;;10.07;;
23990;SDS011;12205;50.600;4.608;2022-12-10T12:19:36;32.45;;;8.38;;
23990;SDS011;12205;50.600;4.608;2022-12-10T12:22:13;48.33;;;10.45;;
23990;SDS011;12205;50.600;4.608;2022-12-10T12:24:47;31.38;;;7.60;;
23990;SDS011;12205;50.600;4.608;2022-12-10T12:27:22;36.70;;;8.10;;
23990;SDS011;12205;50.600;4.608;2022-12-10T12:30:02;34.00;;;8.55;;
23990;SDS011;12205;50.600;4.608;2022-12-10T12:32:36;38.42;;;9.85;;
23990;SDS011;12205;50.600;4.608;2022-12-10T12:35:16;38.78;;;8.68;;
23990;SDS011;12205;50.600;4.608;2022-12-10T12:37:53;42.95;;;9.68;;
23990;SDS011;12205;50.600;4.608;2022-12-10T12:40:27;35.78;;;9.35;;
23990;SDS011;12205;50.600;4.608;2022-12-10T12:42:59;46.97;;;10.32;;
23990;SDS011;12205;50.600;4.608;2022-12-10T12:45:36;37.58;;;8.98;;
23990;SDS011;12205;50.600;4.608;2022-12-10T12:48:12;41.42;;;9.07;;
23990;SDS011;12205;50.600;4.608;2022-12-10T12:50:51;41.45;;;9.07;;
23990;SDS011;12205;50.600;4.608;2022-12-10T12:53:26;43.15;;;8.93;;
23990;SDS011;12205;50.600;4.608;2022-12-10T12:55:56;37.60;;;8.38;;
23990;SDS011;12205;50.600;4.608;2022-12-10T12:58:33;35.78;;;8.10;;
23990;SDS011;12205;50.600;4.608;2022-12-10T13:01:13;41.83;;;10.48;;
23990;SDS011;12205;50.600;4.608;2022-12-10T13:03:51;36.72;;;8.52;;
23990;SDS011;12205;50.600;4.608;2022-12-10T13:06:21;40.53;;;9.77;;
23990;SDS011;12205;50.600;4.608;2022-12-10T13:08:57;39.90;;;9.38;;
23990;SDS011;12205;50.600;4.608;2022-12-10T13:11:44;33.47;;;7.97;;
23990;SDS011;12205;50.600;4.608;2022-12-10T13:14:17;32.45;;;8.30;;
23990;SDS011;12205;50.600;4.608;2022-12-10T13:17:07;36.05;;;8.48;;
23990;SDS011;12205;50.600;4.608;2022-12-10T13:19:52;41.08;;;9.38;;
23990;SDS011;12205;50.600;4.608;2022-12-10T13:22:41;36.70;;;8.95;;
23990;SDS011;12205;50.600;4.608;2022-12-10T13:25:38;39.53;;;9.93;;
23990;SDS011;12205;50.600;4.608;2022-12-10T13:28:22;44.47;;;9.30;;
23990;SDS011;12205;50.600;4.608;2022-12-10T13:31:06;40.10;;;9.27;;
23990;SDS011;12205;50.600;4.608;2022-12-10T13:36:23;42.72;;;10.13;;
23990;SDS011;12205;50.600;4.608;2022-12-10T13:38:54;40.83;;;9.32;;
23990;SDS011;12205;50.600;4.608;2022-12-10T13:41:40;43.10;;;10.43;;
23990;SDS011;12205;50.600;4.608;2022-12-10T13:45:04;43.30;;;11.52;;
23990;SDS011;12205;50.600;4.608;2022-12-10T13:47:50;43.42;;;10.70;;
23990;SDS011;12205;50.600;4.608;2022-12-10T13:50:19;43.65;;;10.20;;
23990;SDS011;12205;50.600;4.608;2022-12-10T13:53:00;36.28;;;8.82;;
23990;SDS011;12205;50.600;4.608;2022-12-10T13:55:42;36.45;;;9.15;;
23990;SDS011;12205;50.600;4.608;2022-12-10T13:58:26;38.13;;;9.15;;
23990;SDS011;12205;50.600;4.608;2022-12-10T14:01:10;46.25;;;9.73;;
23990;SDS011;12205;50.600;4.608;2022-12-10T14:03:59;42.60;;;9.32;;
23990;SDS011;12205;50.600;4.608;2022-12-10T14:06:44;39.95;;;8.68;;
23990;SDS011;12205;50.600;4.608;2022-12-10T14:09:16;43.83;;;9.80;;
23990;SDS011;12205;50.600;4.608;2022-12-10T14:11:51;55.55;;;11.93;;
23990;SDS011;12205;50.600;4.608;2022-12-10T14:14:25;50.97;;;10.63;;
23990;SDS011;12205;50.600;4.608;2022-12-10T14:16:59;47.28;;;10.48;;
23990;SDS011;12205;50.600;4.608;2022-12-10T14:19:28;24.30;;;6.07;;
23990;SDS011;12205;50.600;4.608;2022-12-10T14:21:56;37.60;;;8.07;;
23990;SDS011;12205;50.600;4.608;2022-12-10T14:24:28;35.20;;;8.43;;
23990;SDS011;12205;50.600;4.608;2022-12-10T14:27:00;38.13;;;8.93;;
23990;SDS011;12205;50.600;4.608;2022-12-10T14:32:13;39.90;;;8.98;;
23990;SDS011;12205;50.600;4.608;2022-12-10T14:34:46;41.28;;;10.90;;
23990;SDS011;12205;50.600;4.608;2022-12-10T14:37:21;39.90;;;8.90;;
23990;SDS011;12205;50.600;4.608;2022-12-10T14:39:53;39.20;;;9.43;;
23990;SDS011;12205;50.600;4.608;2022-12-10T14:42:21;36.60;;;8.38;;
23990;SDS011;12205;50.600;4.608;2022-12-10T14:44:51;38.33;;;9.00;;
23990;SDS011;12205;50.600;4.608;2022-12-10T14:47:24;43.90;;;9.98;;
23990;SDS011;12205;50.600;4.608;2022-12-10T14:52:23;36.45;;;9.18;;
23990;SDS011;12205;50.600;4.608;2022-12-10T14:55:00;50.50;;;10.48;;
23990;SDS011;12205;50.600;4.608;2022-12-10T14:57:30;43.50;;;10.27;;
23990;SDS011;12205;50.600;4.608;2022-12-10T15:00:06;36.53;;;8.38;;
23990;SDS011;12205;50.600;4.608;2022-12-10T15:02:40;33.10;;;8.30;;
23990;SDS011;12205;50.600;4.608;2022-12-10T15:05:11;35.08;;;8.63;;
23990;SDS011;12205;50.600;4.608;2022-12-10T15:07:42;39.28;;;10.77;;
23990;SDS011;12205;50.600;4.608;2022-12-10T15:10:20;38.80;;;9.27;;
23990;SDS011;12205;50.600;4.608;2022-12-10T15:12:53;39.50;;;9.63;;
23990;SDS011;12205;50.600;4.608;2022-12-10T15:15:24;48.25;;;10.93;;
23990;SDS011;12205;50.600;4.608;2022-12-10T15:17:58;39.55;;;9.43;;
23990;SDS011;12205;50.600;4.608;2022-12-10T15:20:30;36.78;;;9.00;;
23990;SDS011;12205;50.600;4.608;2022-12-10T15:23:15;34.13;;;8.10;;